sensor_id;sensor_type;location;lat;lon;timestamp;temperature;humidity
25871;DHT22;13689;48.590;7.752;2022-10-22T00:01:29;15.30;99.90
25871;DHT22;13689;48.590;7.752;2022-10-22T00:03:55;15.30;99.90
25871;DHT22;13689;48.590;7.752;2022-10-22T00:06:20;15.30;99.90
25871;DHT22;13689;48.590;7.752;2022-10-22T00:08:46;15.30;99.90
25871;DHT22;13689;48.590;7.752;2022-10-22T00:11:12;15.30;99.90
25871;DHT22;13689;48.590;7.752;2022-10-22T00:13:38;15.30;99.90
25871;DHT22;13689;48.590;7.752;2022-10-22T00:16:04;15.30;99.90
25871;DHT22;13689;48.590;7.752;2022-10-22T00:18:30;15.30;99.90
25871;DHT22;13689;48.590;7.752;2022-10-22T00:20:55;15.30;99.90
25871;DHT22;13689;48.590;7.752;2022-10-22T00:23:21;15.30;99.90
25871;DHT22;13689;48.590;7.752;2022-10-22T00:25:46;15.30;99.90
25871;DHT22;13689;48.590;7.752;2022-10-22T00:28:12;15.30;99.90
25871;DHT22;13689;48.590;7.752;2022-10-22T00:30:37;15.30;99.90
25871;DHT22;13689;48.590;7.752;2022-10-22T00:33:03;15.30;99.90
25871;DHT22;13689;48.590;7.752;2022-10-22T00:35:28;15.30;99.90
25871;DHT22;13689;48.590;7.752;2022-10-22T00:37:54;15.30;99.90
25871;DHT22;13689;48.590;7.752;2022-10-22T00:40:19;15.30;99.90
25871;DHT22;13689;48.590;7.752;2022-10-22T00:42:45;15.30;99.90
25871;DHT22;13689;48.590;7.752;2022-10-22T00:47:36;15.30;99.90
25871;DHT22;13689;48.590;7.752;2022-10-22T00:50:04;15.30;99.90
25871;DHT22;13689;48.590;7.752;2022-10-22T00:52:30;15.30;99.90
25871;DHT22;13689;48.590;7.752;2022-10-22T00:54:56;15.30;99.90
25871;DHT22;13689;48.590;7.752;2022-10-22T00:57:22;15.30;99.90
25871;DHT22;13689;48.590;7.752;2022-10-22T00:59:47;15.30;99.90
25871;DHT22;13689;48.590;7.752;2022-10-22T01:02:13;15.40;99.90
25871;DHT22;13689;48.590;7.752;2022-10-22T01:04:39;15.30;99.90
25871;DHT22;13689;48.590;7.752;2022-10-22T01:07:04;15.40;99.90
25871;DHT22;13689;48.590;7.752;2022-10-22T01:09:33;15.40;99.90
25871;DHT22;13689;48.590;7.752;2022-10-22T01:15:02;15.40;99.90
25871;DHT22;13689;48.590;7.752;2022-10-22T01:22:39;15.40;99.90
25871;DHT22;13689;48.590;7.752;2022-10-22T01:25:11;15.40;99.90
25871;DHT22;13689;48.590;7.752;2022-10-22T01:30:27;15.40;99.90
25871;DHT22;13689;48.590;7.752;2022-10-22T01:32:57;15.40;99.90
25871;DHT22;13689;48.590;7.752;2022-10-22T01:35:26;15.40;99.90
25871;DHT22;13689;48.590;7.752;2022-10-22T01:37:54;15.40;99.90
25871;DHT22;13689;48.590;7.752;2022-10-22T01:40:20;15.30;99.90
25871;DHT22;13689;48.590;7.752;2022-10-22T01:42:56;15.30;99.90
25871;DHT22;13689;48.590;7.752;2022-10-22T01:45:22;15.30;99.90
25871;DHT22;13689;48.590;7.752;2022-10-22T01:50:31;15.20;99.90
25871;DHT22;13689;48.590;7.752;2022-10-22T02:00:37;15.20;99.90
25871;DHT22;13689;48.590;7.752;2022-10-22T02:03:05;15.20;99.90
25871;DHT22;13689;48.590;7.752;2022-10-22T02:05:38;15.10;99.90
25871;DHT22;13689;48.590;7.752;2022-10-22T02:08:06;15.00;99.90
25871;DHT22;13689;48.590;7.752;2022-10-22T02:10:33;14.90;99.90
25871;DHT22;13689;48.590;7.752;2022-10-22T02:13:01;15.00;99.90
25871;DHT22;13689;48.590;7.752;2022-10-22T02:15:28;15.00;99.90
25871;DHT22;13689;48.590;7.752;2022-10-22T02:17:55;15.00;99.90
25871;DHT22;13689;48.590;7.752;2022-10-22T02:20:26;15.00;99.90
25871;DHT22;13689;48.590;7.752;2022-10-22T02:22:52;15.00;99.90
25871;DHT22;13689;48.590;7.752;2022-10-22T02:25:17;14.90;99.90
25871;DHT22;13689;48.590;7.752;2022-10-22T02:27:46;15.00;99.90
25871;DHT22;13689;48.590;7.752;2022-10-22T02:30:17;15.00;99.90
25871;DHT22;13689;48.590;7.752;2022-10-22T02:32:45;15.00;99.90
25871;DHT22;13689;48.590;7.752;2022-10-22T02:35:14;15.00;99.90
25871;DHT22;13689;48.590;7.752;2022-10-22T02:37:41;15.00;99.90
25871;DHT22;13689;48.590;7.752;2022-10-22T02:40:07;15.00;99.90
25871;DHT22;13689;48.590;7.752;2022-10-22T02:42:32;15.00;99.90
25871;DHT22;13689;48.590;7.752;2022-10-22T02:44:59;15.00;99.90
25871;DHT22;13689;48.590;7.752;2022-10-22T02:47:24;15.00;99.90
25871;DHT22;13689;48.590;7.752;2022-10-22T02:49:50;15.00;99.90
25871;DHT22;13689;48.590;7.752;2022-10-22T02:52:15;15.00;99.90
25871;DHT22;13689;48.590;7.752;2022-10-22T02:54:41;15.00;99.90
25871;DHT22;13689;48.590;7.752;2022-10-22T02:57:06;15.00;99.90
25871;DHT22;13689;48.590;7.752;2022-10-22T02:59:32;15.00;99.90
25871;DHT22;13689;48.590;7.752;2022-10-22T03:01:57;15.00;99.90
25871;DHT22;13689;48.590;7.752;2022-10-22T03:04:23;15.00;99.90
25871;DHT22;13689;48.590;7.752;2022-10-22T03:06:48;15.00;99.90
25871;DHT22;13689;48.590;7.752;2022-10-22T03:09:14;15.10;99.90
25871;DHT22;13689;48.590;7.752;2022-10-22T03:11:39;15.20;99.90
25871;DHT22;13689;48.590;7.752;2022-10-22T03:14:05;15.20;99.90
25871;DHT22;13689;48.590;7.752;2022-10-22T03:16:30;15.20;99.90
25871;DHT22;13689;48.590;7.752;2022-10-22T03:18:56;15.20;99.90
25871;DHT22;13689;48.590;7.752;2022-10-22T03:21:27;15.20;99.90
25871;DHT22;13689;48.590;7.752;2022-10-22T03:23:55;15.20;99.90
25871;DHT22;13689;48.590;7.752;2022-10-22T03:26:20;15.20;99.90
25871;DHT22;13689;48.590;7.752;2022-10-22T03:28:46;15.20;99.90
25871;DHT22;13689;48.590;7.752;2022-10-22T03:31:13;15.20;99.90
25871;DHT22;13689;48.590;7.752;2022-10-22T03:33:38;15.20;99.90
25871;DHT22;13689;48.590;7.752;2022-10-22T03:36:04;15.20;99.90
25871;DHT22;13689;48.590;7.752;2022-10-22T03:38:30;15.20;99.90
25871;DHT22;13689;48.590;7.752;2022-10-22T03:40:55;15.10;99.90
25871;DHT22;13689;48.590;7.752;2022-10-22T03:43:21;15.20;99.90
25871;DHT22;13689;48.590;7.752;2022-10-22T03:45:47;15.20;99.90
25871;DHT22;13689;48.590;7.752;2022-10-22T03:48:12;15.20;99.90
25871;DHT22;13689;48.590;7.752;2022-10-22T03:50:38;15.20;99.90
25871;DHT22;13689;48.590;7.752;2022-10-22T03:53:03;15.10;99.90
25871;DHT22;13689;48.590;7.752;2022-10-22T03:55:29;15.10;99.90
25871;DHT22;13689;48.590;7.752;2022-10-22T03:57:54;15.10;99.90
25871;DHT22;13689;48.590;7.752;2022-10-22T04:00:20;15.10;99.90
25871;DHT22;13689;48.590;7.752;2022-10-22T04:02:45;15.10;99.90
25871;DHT22;13689;48.590;7.752;2022-10-22T04:05:11;15.10;99.90
25871;DHT22;13689;48.590;7.752;2022-10-22T04:07:36;15.10;99.90
25871;DHT22;13689;48.590;7.752;2022-10-22T04:10:02;15.10;99.90
25871;DHT22;13689;48.590;7.752;2022-10-22T04:12:28;15.10;99.90
25871;DHT22;13689;48.590;7.752;2022-10-22T04:14:53;15.10;99.90
25871;DHT22;13689;48.590;7.752;2022-10-22T04:17:19;15.10;99.90
25871;DHT22;13689;48.590;7.752;2022-10-22T04:19:44;15.20;99.90
25871;DHT22;13689;48.590;7.752;2022-10-22T04:22:10;15.20;99.90
25871;DHT22;13689;48.590;7.752;2022-10-22T04:24:35;15.20;99.90
25871;DHT22;13689;48.590;7.752;2022-10-22T04:27:01;15.20;99.90
25871;DHT22;13689;48.590;7.752;2022-10-22T04:29:26;15.20;99.90
25871;DHT22;13689;48.590;7.752;2022-10-22T04:31:52;15.20;99.90
25871;DHT22;13689;48.590;7.752;2022-10-22T04:34:17;15.20;99.90
25871;DHT22;13689;48.590;7.752;2022-10-22T04:36:43;15.10;99.90
25871;DHT22;13689;48.590;7.752;2022-10-22T04:39:08;15.10;99.90
25871;DHT22;13689;48.590;7.752;2022-10-22T04:41:36;15.10;99.90
25871;DHT22;13689;48.590;7.752;2022-10-22T04:44:02;15.10;99.90
25871;DHT22;13689;48.590;7.752;2022-10-22T04:46:29;15.10;99.90
25871;DHT22;13689;48.590;7.752;2022-10-22T04:48:54;15.10;99.90
25871;DHT22;13689;48.590;7.752;2022-10-22T04:51:21;15.10;99.90
25871;DHT22;13689;48.590;7.752;2022-10-22T04:53:46;15.00;99.90
25871;DHT22;13689;48.590;7.752;2022-10-22T04:56:13;15.00;99.90
25871;DHT22;13689;48.590;7.752;2022-10-22T04:58:40;15.10;99.90
25871;DHT22;13689;48.590;7.752;2022-10-22T05:01:19;15.00;99.90
25871;DHT22;13689;48.590;7.752;2022-10-22T05:03:45;15.00;99.90
25871;DHT22;13689;48.590;7.752;2022-10-22T05:06:11;15.00;99.90
25871;DHT22;13689;48.590;7.752;2022-10-22T05:08:37;15.00;99.90
25871;DHT22;13689;48.590;7.752;2022-10-22T05:11:16;15.00;99.90
25871;DHT22;13689;48.590;7.752;2022-10-22T05:13:42;14.90;99.90
25871;DHT22;13689;48.590;7.752;2022-10-22T05:16:07;14.90;99.90
25871;DHT22;13689;48.590;7.752;2022-10-22T05:18:36;14.90;99.90
25871;DHT22;13689;48.590;7.752;2022-10-22T05:21:03;14.90;99.90
25871;DHT22;13689;48.590;7.752;2022-10-22T05:23:28;14.90;99.90
25871;DHT22;13689;48.590;7.752;2022-10-22T05:25:54;14.90;99.90
25871;DHT22;13689;48.590;7.752;2022-10-22T05:28:19;14.90;99.90
25871;DHT22;13689;48.590;7.752;2022-10-22T05:30:51;14.90;99.90
25871;DHT22;13689;48.590;7.752;2022-10-22T05:33:17;14.80;99.90
25871;DHT22;13689;48.590;7.752;2022-10-22T05:35:42;14.80;99.90
25871;DHT22;13689;48.590;7.752;2022-10-22T05:38:08;14.80;99.90
25871;DHT22;13689;48.590;7.752;2022-10-22T05:40:33;14.80;99.90
25871;DHT22;13689;48.590;7.752;2022-10-22T05:42:59;14.80;99.90
25871;DHT22;13689;48.590;7.752;2022-10-22T05:45:24;14.80;99.90
25871;DHT22;13689;48.590;7.752;2022-10-22T05:47:50;14.80;99.90
25871;DHT22;13689;48.590;7.752;2022-10-22T05:50:15;14.80;99.90
25871;DHT22;13689;48.590;7.752;2022-10-22T05:52:41;14.70;99.90
25871;DHT22;13689;48.590;7.752;2022-10-22T05:55:06;14.70;99.90
25871;DHT22;13689;48.590;7.752;2022-10-22T05:57:32;14.70;99.90
25871;DHT22;13689;48.590;7.752;2022-10-22T05:59:57;14.70;99.90
25871;DHT22;13689;48.590;7.752;2022-10-22T06:02:23;14.70;99.90
25871;DHT22;13689;48.590;7.752;2022-10-22T06:04:48;14.70;99.90
25871;DHT22;13689;48.590;7.752;2022-10-22T06:07:14;14.70;99.90
25871;DHT22;13689;48.590;7.752;2022-10-22T06:09:40;14.70;99.90
25871;DHT22;13689;48.590;7.752;2022-10-22T06:12:05;14.60;99.90
25871;DHT22;13689;48.590;7.752;2022-10-22T06:14:35;14.60;99.90
25871;DHT22;13689;48.590;7.752;2022-10-22T06:17:00;14.60;99.90
25871;DHT22;13689;48.590;7.752;2022-10-22T06:19:26;14.60;99.90
25871;DHT22;13689;48.590;7.752;2022-10-22T06:21:52;14.60;99.90
25871;DHT22;13689;48.590;7.752;2022-10-22T06:24:18;14.60;99.90
25871;DHT22;13689;48.590;7.752;2022-10-22T06:26:43;14.70;99.90
25871;DHT22;13689;48.590;7.752;2022-10-22T06:29:09;14.70;99.90
25871;DHT22;13689;48.590;7.752;2022-10-22T06:31:35;14.70;99.90
25871;DHT22;13689;48.590;7.752;2022-10-22T06:34:04;14.80;99.90
25871;DHT22;13689;48.590;7.752;2022-10-22T06:36:29;14.80;99.90
25871;DHT22;13689;48.590;7.752;2022-10-22T06:38:55;14.90;99.90
25871;DHT22;13689;48.590;7.752;2022-10-22T06:41:21;14.80;99.90
25871;DHT22;13689;48.590;7.752;2022-10-22T06:43:48;14.90;99.90
25871;DHT22;13689;48.590;7.752;2022-10-22T06:46:15;14.90;99.90
25871;DHT22;13689;48.590;7.752;2022-10-22T06:48:41;14.90;99.90
25871;DHT22;13689;48.590;7.752;2022-10-22T06:51:08;15.00;99.90
25871;DHT22;13689;48.590;7.752;2022-10-22T06:53:33;15.10;99.90
25871;DHT22;13689;48.590;7.752;2022-10-22T06:56:06;15.20;99.90
25871;DHT22;13689;48.590;7.752;2022-10-22T06:58:31;15.20;99.90
25871;DHT22;13689;48.590;7.752;2022-10-22T07:01:17;15.20;99.90
25871;DHT22;13689;48.590;7.752;2022-10-22T07:03:42;15.20;99.90
25871;DHT22;13689;48.590;7.752;2022-10-22T07:06:09;15.20;99.90
25871;DHT22;13689;48.590;7.752;2022-10-22T07:08:35;15.20;99.90
25871;DHT22;13689;48.590;7.752;2022-10-22T07:11:05;15.20;99.90
25871;DHT22;13689;48.590;7.752;2022-10-22T07:13:31;15.20;99.90
25871;DHT22;13689;48.590;7.752;2022-10-22T07:15:56;15.20;99.90
25871;DHT22;13689;48.590;7.752;2022-10-22T07:18:22;15.30;99.90
25871;DHT22;13689;48.590;7.752;2022-10-22T07:20:48;15.30;99.90
25871;DHT22;13689;48.590;7.752;2022-10-22T07:23:14;15.30;99.90
25871;DHT22;13689;48.590;7.752;2022-10-22T07:25:39;15.40;99.90
25871;DHT22;13689;48.590;7.752;2022-10-22T07:28:05;15.40;99.90
25871;DHT22;13689;48.590;7.752;2022-10-22T07:30:30;15.40;99.90
25871;DHT22;13689;48.590;7.752;2022-10-22T07:32:56;15.50;99.90
25871;DHT22;13689;48.590;7.752;2022-10-22T07:35:21;15.50;99.90
25871;DHT22;13689;48.590;7.752;2022-10-22T07:37:48;15.50;99.90
25871;DHT22;13689;48.590;7.752;2022-10-22T07:40:13;15.50;99.90
25871;DHT22;13689;48.590;7.752;2022-10-22T07:42:39;15.50;99.90
25871;DHT22;13689;48.590;7.752;2022-10-22T07:45:05;15.40;99.90
25871;DHT22;13689;48.590;7.752;2022-10-22T07:47:30;15.40;99.90
25871;DHT22;13689;48.590;7.752;2022-10-22T07:49:56;15.40;99.90
25871;DHT22;13689;48.590;7.752;2022-10-22T07:52:21;15.40;99.90
25871;DHT22;13689;48.590;7.752;2022-10-22T07:54:47;15.40;99.90
25871;DHT22;13689;48.590;7.752;2022-10-22T07:57:12;15.40;99.90
25871;DHT22;13689;48.590;7.752;2022-10-22T07:59:37;15.40;99.90
25871;DHT22;13689;48.590;7.752;2022-10-22T08:02:03;15.40;99.90
25871;DHT22;13689;48.590;7.752;2022-10-22T08:04:28;15.50;99.90
25871;DHT22;13689;48.590;7.752;2022-10-22T08:06:54;15.50;99.90
25871;DHT22;13689;48.590;7.752;2022-10-22T08:09:19;15.60;99.90
25871;DHT22;13689;48.590;7.752;2022-10-22T08:11:45;15.60;99.90
25871;DHT22;13689;48.590;7.752;2022-10-22T08:14:11;15.60;99.90
25871;DHT22;13689;48.590;7.752;2022-10-22T08:16:36;15.60;99.90
25871;DHT22;13689;48.590;7.752;2022-10-22T08:19:02;15.70;99.90
25871;DHT22;13689;48.590;7.752;2022-10-22T08:21:27;15.80;99.90
25871;DHT22;13689;48.590;7.752;2022-10-22T08:23:53;15.90;99.90
25871;DHT22;13689;48.590;7.752;2022-10-22T08:26:18;16.10;99.90
25871;DHT22;13689;48.590;7.752;2022-10-22T08:28:44;16.30;99.90
25871;DHT22;13689;48.590;7.752;2022-10-22T08:31:09;17.40;99.90
25871;DHT22;13689;48.590;7.752;2022-10-22T08:33:35;18.70;99.90
25871;DHT22;13689;48.590;7.752;2022-10-22T08:36:01;20.00;99.90
25871;DHT22;13689;48.590;7.752;2022-10-22T08:38:26;21.10;99.90
25871;DHT22;13689;48.590;7.752;2022-10-22T08:40:53;22.00;97.20
25871;DHT22;13689;48.590;7.752;2022-10-22T08:50:55;24.60;83.50
25871;DHT22;13689;48.590;7.752;2022-10-22T08:53:24;25.00;79.50
25871;DHT22;13689;48.590;7.752;2022-10-22T08:55:52;25.30;75.50
25871;DHT22;13689;48.590;7.752;2022-10-22T08:58:24;25.60;71.10
25871;DHT22;13689;48.590;7.752;2022-10-22T09:00:55;25.80;69.30
25871;DHT22;13689;48.590;7.752;2022-10-22T09:05:58;26.10;65.20
25871;DHT22;13689;48.590;7.752;2022-10-22T09:08:25;26.20;64.40
25871;DHT22;13689;48.590;7.752;2022-10-22T09:10:56;26.40;64.60
25871;DHT22;13689;48.590;7.752;2022-10-22T09:13:23;26.50;62.80
25871;DHT22;13689;48.590;7.752;2022-10-22T09:15:54;26.50;61.40
25871;DHT22;13689;48.590;7.752;2022-10-22T09:21:13;26.70;62.00
25871;DHT22;13689;48.590;7.752;2022-10-22T09:23:49;26.70;60.70
25871;DHT22;13689;48.590;7.752;2022-10-22T09:26:16;26.70;61.50
25871;DHT22;13689;48.590;7.752;2022-10-22T09:28:42;26.80;59.70
25871;DHT22;13689;48.590;7.752;2022-10-22T09:31:12;26.90;59.10
25871;DHT22;13689;48.590;7.752;2022-10-22T09:33:38;26.90;58.50
25871;DHT22;13689;48.590;7.752;2022-10-22T09:36:04;27.00;58.50
25871;DHT22;13689;48.590;7.752;2022-10-22T09:38:39;27.10;57.50
25871;DHT22;13689;48.590;7.752;2022-10-22T09:41:05;27.30;57.20
25871;DHT22;13689;48.590;7.752;2022-10-22T09:43:31;27.60;57.30
25871;DHT22;13689;48.590;7.752;2022-10-22T09:45:58;27.90;57.20
25871;DHT22;13689;48.590;7.752;2022-10-22T09:48:28;28.30;56.80
25871;DHT22;13689;48.590;7.752;2022-10-22T09:51:16;28.50;56.00
25871;DHT22;13689;48.590;7.752;2022-10-22T09:53:43;28.80;55.70
25871;DHT22;13689;48.590;7.752;2022-10-22T09:56:55;29.10;55.00
25871;DHT22;13689;48.590;7.752;2022-10-22T09:59:01;29.40;54.70
25871;DHT22;13689;48.590;7.752;2022-10-22T10:01:28;29.80;54.20
25871;DHT22;13689;48.590;7.752;2022-10-22T10:03:54;30.10;53.70
25871;DHT22;13689;48.590;7.752;2022-10-22T10:06:26;30.40;53.40
25871;DHT22;13689;48.590;7.752;2022-10-22T10:09:01;30.50;52.30
25871;DHT22;13689;48.590;7.752;2022-10-22T10:16:57;30.50;50.60
25871;DHT22;13689;48.590;7.752;2022-10-22T10:22:52;28.50;50.80
25871;DHT22;13689;48.590;7.752;2022-10-22T10:27:46;24.20;58.00
25871;DHT22;13689;48.590;7.752;2022-10-22T10:30:18;22.90;60.40
25871;DHT22;13689;48.590;7.752;2022-10-22T10:35:30;21.60;64.30
25871;DHT22;13689;48.590;7.752;2022-10-22T10:38:10;21.10;65.30
25871;DHT22;13689;48.590;7.752;2022-10-22T10:40:48;20.80;66.20
25871;DHT22;13689;48.590;7.752;2022-10-22T10:43:24;20.60;66.70
25871;DHT22;13689;48.590;7.752;2022-10-22T10:45:56;20.40;67.50
25871;DHT22;13689;48.590;7.752;2022-10-22T10:51:20;20.20;67.90
25871;DHT22;13689;48.590;7.752;2022-10-22T10:56:39;20.00;68.40
25871;DHT22;13689;48.590;7.752;2022-10-22T10:59:21;19.90;68.70
25871;DHT22;13689;48.590;7.752;2022-10-22T11:01:53;19.90;68.90
25871;DHT22;13689;48.590;7.752;2022-10-22T11:07:06;19.70;70.30
25871;DHT22;13689;48.590;7.752;2022-10-22T11:09:42;19.60;70.60
25871;DHT22;13689;48.590;7.752;2022-10-22T11:12:14;19.60;70.60
25871;DHT22;13689;48.590;7.752;2022-10-22T11:14:48;19.70;70.80
25871;DHT22;13689;48.590;7.752;2022-10-22T11:17:19;19.70;70.90
25871;DHT22;13689;48.590;7.752;2022-10-22T11:19:49;19.60;71.30
25871;DHT22;13689;48.590;7.752;2022-10-22T11:25:05;19.60;72.10
25871;DHT22;13689;48.590;7.752;2022-10-22T11:27:39;19.60;72.50
25871;DHT22;13689;48.590;7.752;2022-10-22T11:30:14;19.60;72.90
25871;DHT22;13689;48.590;7.752;2022-10-22T11:32:40;19.60;72.70
25871;DHT22;13689;48.590;7.752;2022-10-22T11:35:08;19.60;72.50
25871;DHT22;13689;48.590;7.752;2022-10-22T11:37:36;19.70;72.40
25871;DHT22;13689;48.590;7.752;2022-10-22T11:40:05;19.70;72.50
25871;DHT22;13689;48.590;7.752;2022-10-22T11:42:38;19.70;72.40
25871;DHT22;13689;48.590;7.752;2022-10-22T11:45:25;19.70;72.50
25871;DHT22;13689;48.590;7.752;2022-10-22T11:50:22;19.70;73.20
25871;DHT22;13689;48.590;7.752;2022-10-22T11:57:56;19.70;73.50
25871;DHT22;13689;48.590;7.752;2022-10-22T12:00:34;19.70;73.70
25871;DHT22;13689;48.590;7.752;2022-10-22T12:03:14;19.70;73.80
25871;DHT22;13689;48.590;7.752;2022-10-22T12:05:41;19.80;73.70
25871;DHT22;13689;48.590;7.752;2022-10-22T12:10:59;19.90;73.40
25871;DHT22;13689;48.590;7.752;2022-10-22T12:16:09;20.00;73.10
25871;DHT22;13689;48.590;7.752;2022-10-22T12:18:38;19.90;73.10
25871;DHT22;13689;48.590;7.752;2022-10-22T12:21:05;19.90;72.80
25871;DHT22;13689;48.590;7.752;2022-10-22T12:23:31;20.00;72.80
25871;DHT22;13689;48.590;7.752;2022-10-22T12:25:58;20.00;72.90
25871;DHT22;13689;48.590;7.752;2022-10-22T12:28:23;20.00;72.90
25871;DHT22;13689;48.590;7.752;2022-10-22T12:30:49;20.00;72.70
25871;DHT22;13689;48.590;7.752;2022-10-22T12:33:19;19.90;72.60
25871;DHT22;13689;48.590;7.752;2022-10-22T12:35:47;19.90;72.80
25871;DHT22;13689;48.590;7.752;2022-10-22T12:38:24;19.90;72.90
25871;DHT22;13689;48.590;7.752;2022-10-22T12:40:53;19.90;73.10
25871;DHT22;13689;48.590;7.752;2022-10-22T12:43:23;20.00;73.20
25871;DHT22;13689;48.590;7.752;2022-10-22T12:45:49;20.00;72.90
25871;DHT22;13689;48.590;7.752;2022-10-22T12:48:20;20.10;72.80
25871;DHT22;13689;48.590;7.752;2022-10-22T12:50:57;20.10;72.80
25871;DHT22;13689;48.590;7.752;2022-10-22T12:53:26;20.10;72.70
25871;DHT22;13689;48.590;7.752;2022-10-22T12:55:52;20.20;72.50
25871;DHT22;13689;48.590;7.752;2022-10-22T12:58:19;20.20;72.20
25871;DHT22;13689;48.590;7.752;2022-10-22T13:00:46;20.20;72.10
25871;DHT22;13689;48.590;7.752;2022-10-22T13:03:25;20.10;72.10
25871;DHT22;13689;48.590;7.752;2022-10-22T13:05:50;20.20;72.10
25871;DHT22;13689;48.590;7.752;2022-10-22T13:08:22;20.20;71.60
25871;DHT22;13689;48.590;7.752;2022-10-22T13:10:51;20.30;71.50
25871;DHT22;13689;48.590;7.752;2022-10-22T13:13:38;20.30;71.30
25871;DHT22;13689;48.590;7.752;2022-10-22T13:16:13;20.30;71.20
25871;DHT22;13689;48.590;7.752;2022-10-22T13:18:38;20.20;71.30
25871;DHT22;13689;48.590;7.752;2022-10-22T13:21:04;20.30;71.50
25871;DHT22;13689;48.590;7.752;2022-10-22T13:23:32;20.30;71.30
25871;DHT22;13689;48.590;7.752;2022-10-22T13:26:02;20.30;71.10
25871;DHT22;13689;48.590;7.752;2022-10-22T13:28:29;20.30;70.80
25871;DHT22;13689;48.590;7.752;2022-10-22T13:33:25;20.30;70.70
25871;DHT22;13689;48.590;7.752;2022-10-22T13:35:51;20.30;70.80
25871;DHT22;13689;48.590;7.752;2022-10-22T13:38:18;20.30;70.80
25871;DHT22;13689;48.590;7.752;2022-10-22T13:40:44;20.30;70.80
25871;DHT22;13689;48.590;7.752;2022-10-22T13:43:10;20.30;70.90
25871;DHT22;13689;48.590;7.752;2022-10-22T13:45:35;20.30;71.10
25871;DHT22;13689;48.590;7.752;2022-10-22T13:48:01;20.30;71.20
25871;DHT22;13689;48.590;7.752;2022-10-22T13:50:26;20.30;71.10
25871;DHT22;13689;48.590;7.752;2022-10-22T13:52:53;20.30;71.10
25871;DHT22;13689;48.590;7.752;2022-10-22T13:55:24;20.30;71.10
25871;DHT22;13689;48.590;7.752;2022-10-22T13:57:50;20.30;71.30
25871;DHT22;13689;48.590;7.752;2022-10-22T14:00:17;20.30;71.30
25871;DHT22;13689;48.590;7.752;2022-10-22T14:02:43;20.30;71.20
25871;DHT22;13689;48.590;7.752;2022-10-22T14:05:10;20.30;71.10
25871;DHT22;13689;48.590;7.752;2022-10-22T14:07:36;20.30;71.10
25871;DHT22;13689;48.590;7.752;2022-10-22T14:10:02;20.20;71.00
25871;DHT22;13689;48.590;7.752;2022-10-22T14:12:30;20.20;71.10
25871;DHT22;13689;48.590;7.752;2022-10-22T14:14:56;20.20;71.00
25871;DHT22;13689;48.590;7.752;2022-10-22T14:17:21;20.30;71.10
25871;DHT22;13689;48.590;7.752;2022-10-22T14:19:47;20.30;71.00
25871;DHT22;13689;48.590;7.752;2022-10-22T14:22:16;20.30;71.10
25871;DHT22;13689;48.590;7.752;2022-10-22T14:24:42;20.30;71.10
25871;DHT22;13689;48.590;7.752;2022-10-22T14:27:11;20.30;71.10
25871;DHT22;13689;48.590;7.752;2022-10-22T14:29:37;20.30;71.10
25871;DHT22;13689;48.590;7.752;2022-10-22T14:32:05;20.30;71.10
25871;DHT22;13689;48.590;7.752;2022-10-22T14:34:30;20.30;71.10
25871;DHT22;13689;48.590;7.752;2022-10-22T14:36:56;20.30;71.20
25871;DHT22;13689;48.590;7.752;2022-10-22T14:39:21;20.20;71.20
25871;DHT22;13689;48.590;7.752;2022-10-22T14:41:47;20.30;71.20
25871;DHT22;13689;48.590;7.752;2022-10-22T14:44:12;20.30;71.10
25871;DHT22;13689;48.590;7.752;2022-10-22T14:46:38;20.30;71.00
25871;DHT22;13689;48.590;7.752;2022-10-22T14:49:06;20.30;71.10
25871;DHT22;13689;48.590;7.752;2022-10-22T14:51:31;20.20;71.20
25871;DHT22;13689;48.590;7.752;2022-10-22T14:53:57;20.20;71.30
25871;DHT22;13689;48.590;7.752;2022-10-22T14:56:22;20.20;71.10
25871;DHT22;13689;48.590;7.752;2022-10-22T14:58:48;20.20;70.90
25871;DHT22;13689;48.590;7.752;2022-10-22T15:01:14;20.30;70.70
25871;DHT22;13689;48.590;7.752;2022-10-22T15:03:39;20.30;70.30
25871;DHT22;13689;48.590;7.752;2022-10-22T15:06:05;20.30;70.20
25871;DHT22;13689;48.590;7.752;2022-10-22T15:08:31;20.30;70.30
25871;DHT22;13689;48.590;7.752;2022-10-22T15:11:04;20.30;70.40
25871;DHT22;13689;48.590;7.752;2022-10-22T15:13:30;20.20;70.40
25871;DHT22;13689;48.590;7.752;2022-10-22T15:15:56;20.20;71.30
25871;DHT22;13689;48.590;7.752;2022-10-22T15:18:22;20.20;70.60
25871;DHT22;13689;48.590;7.752;2022-10-22T15:21:01;20.20;70.50
25871;DHT22;13689;48.590;7.752;2022-10-22T15:23:27;20.20;70.50
25871;DHT22;13689;48.590;7.752;2022-10-22T15:25:53;20.10;70.70
25871;DHT22;13689;48.590;7.752;2022-10-22T15:28:19;20.10;70.80
25871;DHT22;13689;48.590;7.752;2022-10-22T15:30:50;20.10;71.00
25871;DHT22;13689;48.590;7.752;2022-10-22T15:33:16;20.10;71.00
25871;DHT22;13689;48.590;7.752;2022-10-22T15:35:42;20.00;71.00
25871;DHT22;13689;48.590;7.752;2022-10-22T15:38:07;20.00;71.00
25871;DHT22;13689;48.590;7.752;2022-10-22T15:40:33;20.00;71.20
25871;DHT22;13689;48.590;7.752;2022-10-22T15:42:58;20.00;71.20
25871;DHT22;13689;48.590;7.752;2022-10-22T15:45:24;20.00;71.20
25871;DHT22;13689;48.590;7.752;2022-10-22T15:47:50;20.00;71.00
25871;DHT22;13689;48.590;7.752;2022-10-22T15:50:15;20.00;71.00
25871;DHT22;13689;48.590;7.752;2022-10-22T15:52:41;20.00;71.00
25871;DHT22;13689;48.590;7.752;2022-10-22T15:55:08;20.00;71.10
25871;DHT22;13689;48.590;7.752;2022-10-22T15:57:37;20.00;71.00
25871;DHT22;13689;48.590;7.752;2022-10-22T16:00:03;20.00;71.00
25871;DHT22;13689;48.590;7.752;2022-10-22T16:02:29;20.00;71.10
25871;DHT22;13689;48.590;7.752;2022-10-22T16:04:54;19.90;71.10
25871;DHT22;13689;48.590;7.752;2022-10-22T16:07:21;19.90;71.10
25871;DHT22;13689;48.590;7.752;2022-10-22T16:09:47;19.90;71.30
25871;DHT22;13689;48.590;7.752;2022-10-22T16:12:12;19.80;71.30
25871;DHT22;13689;48.590;7.752;2022-10-22T16:14:38;19.80;71.40
25871;DHT22;13689;48.590;7.752;2022-10-22T16:17:03;19.80;71.50
25871;DHT22;13689;48.590;7.752;2022-10-22T16:19:29;19.80;71.50
25871;DHT22;13689;48.590;7.752;2022-10-22T16:21:54;19.70;71.50
25871;DHT22;13689;48.590;7.752;2022-10-22T16:24:20;19.70;71.60
25871;DHT22;13689;48.590;7.752;2022-10-22T16:26:46;19.70;71.80
25871;DHT22;13689;48.590;7.752;2022-10-22T16:29:12;19.60;71.60
25871;DHT22;13689;48.590;7.752;2022-10-22T16:31:38;19.60;71.70
25871;DHT22;13689;48.590;7.752;2022-10-22T16:34:04;19.60;71.90
25871;DHT22;13689;48.590;7.752;2022-10-22T16:36:30;19.60;72.00
25871;DHT22;13689;48.590;7.752;2022-10-22T16:38:55;19.60;72.10
25871;DHT22;13689;48.590;7.752;2022-10-22T16:41:22;19.50;72.10
25871;DHT22;13689;48.590;7.752;2022-10-22T16:43:48;19.50;72.20
25871;DHT22;13689;48.590;7.752;2022-10-22T16:46:15;19.40;72.30
25871;DHT22;13689;48.590;7.752;2022-10-22T16:48:47;19.40;72.30